createdAt,value
2018-06-15T00:00:14.684Z,18.38
2018-06-15T00:00:45.858Z,18.37
2018-06-15T00:01:17.025Z,18.36
2018-06-15T00:01:48.201Z,18.36
2018-06-15T00:02:19.379Z,18.35
2018-06-15T00:02:50.552Z,18.34
2018-06-15T00:03:21.773Z,18.36
2018-06-15T00:03:53.001Z,18.35
2018-06-15T00:04:24.224Z,18.35
2018-06-15T00:04:55.397Z,18.34
2018-06-15T00:05:26.580Z,18.34
2018-06-15T00:05:57.759Z,18.35
2018-06-15T00:06:28.928Z,18.34
2018-06-15T00:07:00.161Z,18.35
2018-06-15T00:07:31.378Z,18.32
2018-06-15T00:08:02.548Z,18.31
2018-06-15T00:08:33.784Z,18.31
2018-06-15T00:09:04.947Z,18.33
2018-06-15T00:09:36.153Z,18.32
2018-06-15T00:10:07.356Z,18.32
2018-06-15T00:10:39.479Z,18.31
2018-06-15T00:11:10.660Z,18.32
2018-06-15T00:11:41.829Z,18.33
2018-06-15T00:12:13.050Z,18.35
2018-06-15T00:12:44.259Z,18.36
2018-06-15T00:13:15.489Z,18.35
2018-06-15T00:13:46.721Z,18.35
2018-06-15T00:14:17.904Z,18.34
2018-06-15T00:14:49.072Z,18.33
2018-06-15T00:15:20.299Z,18.34
2018-06-15T00:15:51.512Z,18.33
2018-06-15T00:16:22.694Z,18.32
2018-06-15T00:16:53.914Z,18.30
2018-06-15T00:17:25.146Z,18.30
2018-06-15T00:17:56.341Z,18.29
2018-06-15T00:18:27.561Z,18.29
2018-06-15T00:18:58.752Z,18.31
2018-06-15T00:19:29.973Z,18.30
2018-06-15T00:20:01.204Z,18.33
2018-06-15T00:20:32.489Z,18.33
2018-06-15T00:21:03.687Z,18.32
2018-06-15T00:21:34.905Z,18.31
2018-06-15T00:22:06.151Z,18.31
2018-06-15T00:22:37.381Z,18.27
2018-06-15T00:23:08.612Z,18.25
2018-06-15T00:23:39.781Z,18.23
2018-06-15T00:24:10.948Z,18.21
2018-06-15T00:24:42.114Z,18.19
2018-06-15T00:25:13.376Z,18.19
2018-06-15T00:25:44.661Z,18.15
2018-06-15T00:26:15.840Z,18.13
2018-06-15T00:26:47.009Z,18.13
2018-06-15T00:27:18.176Z,18.10
2018-06-15T00:27:49.409Z,18.08
2018-06-15T00:28:20.684Z,18.06
2018-06-15T00:28:51.905Z,18.04
2018-06-15T00:29:23.141Z,18.04
2018-06-15T00:29:54.348Z,18.02
2018-06-15T00:30:25.552Z,18.03
2018-06-15T00:30:56.734Z,18.04
2018-06-15T00:31:27.969Z,18.04
2018-06-15T00:31:59.358Z,18.01
2018-06-15T00:32:30.525Z,17.99
2018-06-15T00:33:01.792Z,17.98
2018-06-15T00:33:33.024Z,17.97
2018-06-15T00:34:04.205Z,17.97
2018-06-15T00:34:35.380Z,17.98
2018-06-15T00:35:06.597Z,18.00
2018-06-15T00:35:37.887Z,17.99
2018-06-15T00:36:09.133Z,18.04
2018-06-15T00:36:40.316Z,18.06
2018-06-15T00:37:11.496Z,18.06
2018-06-15T00:37:42.668Z,18.10
2018-06-15T00:38:13.874Z,18.12
2018-06-15T00:38:45.065Z,18.14
2018-06-15T00:39:16.232Z,18.18
2018-06-15T00:39:47.408Z,18.17
2018-06-15T00:40:18.568Z,18.23
2018-06-15T00:40:49.740Z,18.25
2018-06-15T00:41:20.973Z,18.28
2018-06-15T00:41:52.260Z,18.28
2018-06-15T00:42:23.441Z,18.29
2018-06-15T00:42:54.633Z,18.25
2018-06-15T00:43:25.799Z,18.29
2018-06-15T00:43:56.973Z,18.29
2018-06-15T00:44:28.140Z,18.29
2018-06-15T00:44:59.401Z,18.28
2018-06-15T00:45:30.576Z,18.31
2018-06-15T00:46:01.809Z,18.30
2018-06-15T00:46:33.008Z,18.27
2018-06-15T00:47:04.228Z,18.24
2018-06-15T00:47:35.461Z,18.17
2018-06-15T00:48:06.701Z,18.06
2018-06-15T00:48:37.928Z,18.10
2018-06-15T00:49:09.100Z,18.07
2018-06-15T00:49:40.279Z,18.02
2018-06-15T00:50:11.493Z,18.06
2018-06-15T00:50:42.729Z,18.09
2018-06-15T00:51:13.972Z,18.09
2018-06-15T00:51:45.160Z,18.10
2018-06-15T00:52:16.336Z,18.09
2018-06-15T00:52:47.545Z,18.11
2018-06-15T00:53:18.725Z,18.11
2018-06-15T00:53:49.904Z,18.11
2018-06-15T00:54:21.069Z,18.12
2018-06-15T00:54:52.241Z,18.10
2018-06-15T00:55:23.408Z,18.14
2018-06-15T00:55:54.580Z,18.11
2018-06-15T00:56:25.799Z,18.12
2018-06-15T00:56:56.988Z,18.11
2018-06-15T00:57:28.220Z,18.11
2018-06-15T00:57:59.396Z,18.12
2018-06-15T00:58:30.561Z,18.12
2018-06-15T00:59:01.752Z,18.13
2018-06-15T00:59:32.926Z,18.17
2018-06-15T01:00:04.145Z,18.17
2018-06-15T01:00:35.333Z,18.13
2018-06-15T01:01:06.500Z,18.14
2018-06-15T01:01:37.752Z,18.15
2018-06-15T01:02:08.916Z,18.12
2018-06-15T01:02:40.088Z,18.11
2018-06-15T01:03:11.307Z,18.07
2018-06-15T01:03:42.553Z,18.05
2018-06-15T01:04:13.744Z,18.05
2018-06-15T01:04:44.908Z,18.06
2018-06-15T01:05:16.138Z,18.03
2018-06-15T01:05:47.364Z,17.95
2018-06-15T01:06:18.558Z,17.96
2018-06-15T01:06:49.772Z,17.95
2018-06-15T01:07:21.009Z,17.93
2018-06-15T01:07:52.241Z,17.92
2018-06-15T01:08:23.424Z,17.89
2018-06-15T01:08:54.600Z,17.92
2018-06-15T01:09:25.764Z,17.91
2018-06-15T01:09:57.023Z,17.94
2018-06-15T01:10:28.220Z,17.99
2018-06-15T01:10:59.393Z,17.97
2018-06-15T01:11:30.560Z,18.00
2018-06-15T01:12:01.735Z,18.01
2018-06-15T01:12:32.917Z,18.04
2018-06-15T01:13:04.137Z,18.03
2018-06-15T01:13:35.365Z,18.03
2018-06-15T01:14:06.590Z,18.04
2018-06-15T01:14:37.830Z,18.05
2018-06-15T01:15:09.013Z,18.03
2018-06-15T01:15:40.193Z,18.04
2018-06-15T01:16:11.378Z,18.02
2018-06-15T01:16:42.635Z,18.03
2018-06-15T01:17:13.851Z,18.05
2018-06-15T01:17:45.029Z,18.02
2018-06-15T01:18:16.256Z,18.06
2018-06-15T01:18:47.476Z,18.05
2018-06-15T01:19:18.722Z,18.06
2018-06-15T01:19:49.901Z,18.03
2018-06-15T01:20:21.129Z,18.00
2018-06-15T01:20:52.304Z,18.01
2018-06-15T01:21:23.477Z,18.00
2018-06-15T01:21:54.738Z,17.97
2018-06-15T01:22:25.956Z,17.97
2018-06-15T01:22:57.182Z,17.96
2018-06-15T01:23:28.401Z,17.96
2018-06-15T01:23:59.582Z,17.91
2018-06-15T01:24:30.775Z,17.91
2018-06-15T01:25:01.952Z,17.94
2018-06-15T01:25:33.162Z,17.95
2018-06-15T01:26:04.332Z,17.96
2018-06-15T01:26:35.500Z,17.95
2018-06-15T01:27:06.736Z,17.94
2018-06-15T01:27:37.904Z,17.96
2018-06-15T01:28:09.096Z,17.97
2018-06-15T01:28:40.274Z,17.99
2018-06-15T01:29:11.538Z,17.98
2018-06-15T01:29:42.773Z,17.95
2018-06-15T01:30:14.004Z,17.94
2018-06-15T01:30:45.273Z,17.94
2018-06-15T01:31:16.444Z,17.95
2018-06-15T01:31:47.623Z,17.92
2018-06-15T01:32:18.788Z,17.90
2018-06-15T01:32:49.960Z,17.89
2018-06-15T01:33:21.124Z,17.86
2018-06-15T01:33:52.345Z,17.83
2018-06-15T01:34:23.591Z,17.81
2018-06-15T01:34:54.777Z,17.79
2018-06-15T01:35:25.981Z,17.76
2018-06-15T01:35:57.196Z,17.72
2018-06-15T01:36:28.364Z,17.69
2018-06-15T01:36:59.534Z,17.67
2018-06-15T01:37:30.712Z,17.66
2018-06-15T01:38:01.934Z,17.65
2018-06-15T01:38:33.124Z,17.63
2018-06-15T01:39:04.292Z,17.61
2018-06-15T01:39:35.461Z,17.60
2018-06-15T01:40:06.637Z,17.58
2018-06-15T01:40:37.841Z,17.56
2018-06-15T01:41:09.011Z,17.53
2018-06-15T01:41:40.184Z,17.51
2018-06-15T01:42:11.368Z,17.47
2018-06-15T01:42:42.581Z,17.44
2018-06-15T01:43:13.748Z,17.43
2018-06-15T01:43:44.924Z,17.36
2018-06-15T01:44:16.099Z,17.37
2018-06-15T01:44:47.290Z,17.34
2018-06-15T01:45:18.466Z,17.33
2018-06-15T01:45:49.680Z,17.32
2018-06-15T01:46:20.860Z,17.34
2018-06-15T01:46:52.025Z,17.33
2018-06-15T01:47:23.232Z,17.34
2018-06-15T01:47:54.462Z,17.33
2018-06-15T01:48:25.648Z,17.34
2018-06-15T01:48:56.901Z,17.36
2018-06-15T01:49:28.084Z,17.36
2018-06-15T01:49:59.317Z,17.35
2018-06-15T01:50:30.497Z,17.33
2018-06-15T01:51:01.765Z,17.34
2018-06-15T01:51:32.989Z,17.37
2018-06-15T01:52:04.212Z,17.37
2018-06-15T01:52:35.442Z,17.38
2018-06-15T01:53:06.625Z,17.38
2018-06-15T01:53:37.788Z,17.38
2018-06-15T01:54:09.017Z,17.34
2018-06-15T01:54:40.252Z,17.34
2018-06-15T01:55:11.501Z,17.32
2018-06-15T01:55:42.716Z,17.30
2018-06-15T01:56:13.936Z,17.29
2018-06-15T01:56:45.121Z,17.11
2018-06-15T01:57:16.301Z,17.27
2018-06-15T01:57:47.552Z,17.25
2018-06-15T01:58:18.733Z,17.24
2018-06-15T01:58:49.913Z,17.24
2018-06-15T01:59:21.121Z,17.24
2018-06-15T01:59:52.290Z,17.26
2018-06-15T02:00:23.472Z,17.26
2018-06-15T02:00:55.036Z,17.27
2018-06-15T02:01:26.320Z,17.29
2018-06-15T02:01:57.490Z,17.32
2018-06-15T02:02:28.681Z,17.31
2018-06-15T02:02:59.930Z,17.33
2018-06-15T02:03:31.116Z,17.33
2018-06-15T02:04:02.285Z,17.31
2018-06-15T02:04:33.517Z,17.31
2018-06-15T02:05:04.728Z,17.32
2018-06-15T02:05:35.950Z,17.31
2018-06-15T02:06:07.174Z,17.30
2018-06-15T02:06:38.347Z,17.27
2018-06-15T02:07:09.562Z,17.25
2018-06-15T02:07:40.782Z,17.23
2018-06-15T02:08:11.952Z,17.23
2018-06-15T02:08:43.119Z,17.25
2018-06-15T02:09:14.343Z,17.23
2018-06-15T02:09:45.576Z,17.23
2018-06-15T02:10:16.848Z,17.21
2018-06-15T02:10:48.069Z,17.19
2018-06-15T02:11:19.247Z,17.18
2018-06-15T02:11:50.466Z,17.15
2018-06-15T02:12:21.677Z,17.14
2018-06-15T02:12:52.853Z,17.12
2018-06-15T02:13:24.044Z,17.11
2018-06-15T02:13:55.240Z,17.09
2018-06-15T02:14:26.465Z,17.06
2018-06-15T02:14:57.704Z,17.04
2018-06-15T02:15:28.937Z,17.03
2018-06-15T02:16:00.106Z,17.03
2018-06-15T02:16:31.273Z,17.00
2018-06-15T02:17:02.445Z,16.99
2018-06-15T02:17:33.616Z,16.98
2018-06-15T02:18:04.825Z,16.97
2018-06-15T02:18:36.052Z,16.98
2018-06-15T02:19:07.250Z,16.97
2018-06-15T02:19:38.427Z,16.98
2018-06-15T02:20:09.597Z,16.99
2018-06-15T02:20:40.865Z,16.99
2018-06-15T02:21:12.040Z,16.99
2018-06-15T02:21:43.262Z,16.97
2018-06-15T02:22:14.441Z,16.96
2018-06-15T02:22:45.663Z,16.97
2018-06-15T02:23:16.922Z,16.97
2018-06-15T02:23:48.154Z,16.96
2018-06-15T02:24:19.380Z,16.98
2018-06-15T02:24:50.550Z,16.98
2018-06-15T02:25:21.720Z,16.98
2018-06-15T02:25:52.892Z,17.01
2018-06-15T02:26:24.078Z,17.01
2018-06-15T02:26:55.244Z,17.01
2018-06-15T02:27:26.448Z,17.00
2018-06-15T02:27:57.650Z,16.98
2018-06-15T02:28:28.890Z,16.97
2018-06-15T02:29:00.114Z,16.96
2018-06-15T02:29:31.281Z,16.97
2018-06-15T02:30:02.504Z,16.95
2018-06-15T02:30:33.684Z,16.97
2018-06-15T02:31:04.853Z,16.97
2018-06-15T02:31:36.078Z,16.97
2018-06-15T02:32:07.290Z,16.98
2018-06-15T02:32:38.513Z,16.97
2018-06-15T02:33:09.734Z,16.95
2018-06-15T02:33:40.961Z,16.91
2018-06-15T02:34:12.209Z,16.91
2018-06-15T02:34:43.390Z,16.89
2018-06-15T02:35:14.556Z,16.88
2018-06-15T02:35:45.759Z,16.87
2018-06-15T02:36:16.934Z,16.87
2018-06-15T02:36:48.149Z,16.87
2018-06-15T02:37:19.323Z,16.87
2018-06-15T02:37:50.537Z,16.87
2018-06-15T02:38:21.719Z,16.86
2018-06-15T02:38:52.887Z,16.87
2018-06-15T02:39:24.062Z,16.89
2018-06-15T02:39:55.228Z,16.90
2018-06-15T02:40:26.453Z,16.91
2018-06-15T02:40:57.641Z,16.92
2018-06-15T02:41:28.862Z,16.92
2018-06-15T02:42:00.086Z,16.95
2018-06-15T02:42:31.320Z,16.97
2018-06-15T02:43:02.537Z,16.98
2018-06-15T02:43:33.738Z,17.02
2018-06-15T02:44:04.974Z,17.07
2018-06-15T02:44:36.200Z,17.07
2018-06-15T02:45:07.380Z,17.07
2018-06-15T02:45:38.551Z,17.08
2018-06-15T02:46:09.724Z,17.08
2018-06-15T02:46:40.958Z,17.06
2018-06-15T02:47:12.142Z,17.04
2018-06-15T02:47:43.369Z,17.03
2018-06-15T02:48:14.625Z,17.01
2018-06-15T02:48:45.836Z,17.00
2018-06-15T02:49:17.001Z,17.01
2018-06-15T02:49:48.227Z,16.99
2018-06-15T02:50:19.469Z,16.95
2018-06-15T02:50:50.649Z,16.95
2018-06-15T02:51:21.817Z,16.95
2018-06-15T02:51:53.052Z,16.94
2018-06-15T02:52:24.277Z,16.96
2018-06-15T02:52:55.538Z,16.95
2018-06-15T02:53:26.734Z,16.91
2018-06-15T02:53:57.902Z,16.91
2018-06-15T02:54:29.080Z,16.92
2018-06-15T02:55:00.253Z,16.93
2018-06-15T02:55:31.482Z,16.93
2018-06-15T02:56:02.683Z,16.95
2018-06-15T02:56:33.848Z,16.95
2018-06-15T02:57:05.019Z,16.95
2018-06-15T02:57:36.236Z,16.95
2018-06-15T02:58:07.514Z,16.95
2018-06-15T02:58:38.705Z,16.95
2018-06-15T02:59:09.965Z,16.97
2018-06-15T02:59:41.156Z,16.95
2018-06-15T03:00:12.328Z,16.97
2018-06-15T03:00:43.557Z,16.99
2018-06-15T03:01:14.748Z,17.00
2018-06-15T03:01:45.928Z,16.99
2018-06-15T03:02:17.153Z,17.02
2018-06-15T03:02:48.336Z,17.02
2018-06-15T03:03:19.512Z,17.06
2018-06-15T03:03:50.730Z,17.07
2018-06-15T03:04:21.962Z,17.06
2018-06-15T03:04:53.140Z,17.06
2018-06-15T03:05:24.369Z,17.07
2018-06-15T03:05:55.551Z,17.06
2018-06-15T03:06:26.732Z,17.08
2018-06-15T03:06:57.902Z,17.05
2018-06-15T03:07:29.065Z,17.07
2018-06-15T03:08:00.236Z,17.06
2018-06-15T03:08:31.421Z,17.07
2018-06-15T03:09:02.661Z,17.05
2018-06-15T03:09:33.835Z,17.07
2018-06-15T03:10:05.016Z,17.05
2018-06-15T03:10:36.233Z,17.05
2018-06-15T03:11:07.409Z,17.06
2018-06-15T03:11:38.646Z,17.04
2018-06-15T03:12:09.870Z,17.07
2018-06-15T03:12:41.085Z,17.09
2018-06-15T03:13:12.320Z,17.10
2018-06-15T03:13:43.515Z,17.11
2018-06-15T03:14:14.692Z,17.13
2018-06-15T03:14:45.913Z,17.15
2018-06-15T03:15:17.143Z,17.16
2018-06-15T03:15:48.376Z,17.20
2018-06-15T03:16:19.553Z,17.23
2018-06-15T03:16:50.731Z,17.27
2018-06-15T03:17:21.949Z,17.31
2018-06-15T03:17:53.199Z,17.34
2018-06-15T03:18:24.378Z,17.36
2018-06-15T03:18:55.610Z,17.40
2018-06-15T03:19:26.781Z,17.41
2018-06-15T03:19:57.972Z,17.43
2018-06-15T03:20:29.196Z,17.45
2018-06-15T03:21:00.373Z,17.46
2018-06-15T03:21:31.580Z,17.46
2018-06-15T03:22:02.806Z,17.42
2018-06-15T03:22:33.984Z,17.42
2018-06-15T03:23:05.165Z,17.42
2018-06-15T03:23:36.342Z,17.39
2018-06-15T03:24:07.580Z,17.37
2018-06-15T03:24:38.745Z,17.38
2018-06-15T03:25:09.979Z,17.39
2018-06-15T03:25:41.116Z,17.41
2018-06-15T03:26:12.339Z,17.43
2018-06-15T03:26:43.537Z,17.43
2018-06-15T03:27:14.701Z,17.45
2018-06-15T03:27:45.869Z,17.46
2018-06-15T03:28:17.036Z,17.48
2018-06-15T03:28:48.212Z,17.51
2018-06-15T03:29:19.421Z,17.54
2018-06-15T03:29:50.655Z,17.57
2018-06-15T03:30:21.837Z,17.59
2018-06-15T03:30:53.016Z,17.61
2018-06-15T03:31:24.239Z,17.65
2018-06-15T03:31:55.448Z,17.69
2018-06-15T03:32:26.674Z,17.73
2018-06-15T03:32:57.865Z,17.79
2018-06-15T03:33:29.056Z,17.87
2018-06-15T03:34:00.227Z,17.94
2018-06-15T03:34:31.444Z,18.01
2018-06-15T03:35:02.625Z,18.08
2018-06-15T03:35:33.794Z,18.15
2018-06-15T03:36:04.964Z,18.25
2018-06-15T03:36:36.147Z,18.34
2018-06-15T03:37:07.378Z,18.47
2018-06-15T03:37:38.596Z,18.63
2018-06-15T03:38:09.760Z,18.82
2018-06-15T03:38:40.986Z,18.99
2018-06-15T03:39:12.237Z,19.18
2018-06-15T03:39:43.519Z,19.33
2018-06-15T03:40:14.713Z,19.49
2018-06-15T03:40:45.940Z,19.62
2018-06-15T03:41:17.133Z,19.72
2018-06-15T03:41:48.394Z,19.83
2018-06-15T03:42:19.593Z,19.95
2018-06-15T03:42:50.765Z,20.06
2018-06-15T03:43:21.989Z,20.19
2018-06-15T03:43:53.217Z,20.34
2018-06-15T03:44:24.445Z,20.48
2018-06-15T03:44:55.661Z,20.60
2018-06-15T03:45:26.832Z,20.69
2018-06-15T03:45:58.048Z,20.86
2018-06-15T03:46:29.222Z,20.99
2018-06-15T03:47:00.439Z,21.15
2018-06-15T03:47:31.623Z,21.26
2018-06-15T03:48:02.817Z,21.41
2018-06-15T03:48:33.997Z,21.56
2018-06-15T03:49:05.176Z,21.73
2018-06-15T03:49:36.375Z,21.90
2018-06-15T03:50:07.568Z,22.03
2018-06-15T03:50:38.753Z,22.08
2018-06-15T03:51:09.980Z,22.05
2018-06-15T03:51:41.207Z,22.02
2018-06-15T03:52:12.428Z,22.05
2018-06-15T03:52:43.652Z,22.03
2018-06-15T03:53:14.832Z,21.95
2018-06-15T03:53:46.016Z,21.88
2018-06-15T03:54:17.203Z,21.75
2018-06-15T03:54:48.489Z,21.62
2018-06-15T03:55:19.720Z,21.49
2018-06-15T03:55:51.005Z,21.38
2018-06-15T03:56:22.224Z,21.33
2018-06-15T03:56:53.453Z,21.34
2018-06-15T03:57:24.645Z,21.41
2018-06-15T03:57:55.828Z,21.50
2018-06-15T03:58:27.195Z,21.60
2018-06-15T03:58:58.391Z,21.76
2018-06-15T03:59:29.633Z,21.93
2018-06-15T04:00:00.865Z,22.12
2018-06-15T04:00:32.083Z,22.25
2018-06-15T04:01:03.305Z,22.40
2018-06-15T04:01:34.484Z,22.59
2018-06-15T04:02:05.674Z,22.77
2018-06-15T04:02:36.848Z,22.91
2018-06-15T04:03:08.026Z,23.01
2018-06-15T04:03:39.236Z,23.04
2018-06-15T04:04:10.464Z,23.00
2018-06-15T04:04:41.713Z,22.95
2018-06-15T04:05:12.895Z,22.84
2018-06-15T04:05:44.123Z,22.74
2018-06-15T04:06:15.296Z,22.64
2018-06-15T04:06:46.469Z,22.53
2018-06-15T04:07:17.851Z,22.51
2018-06-15T04:07:49.093Z,22.49
2018-06-15T04:08:20.276Z,22.51
2018-06-15T04:08:51.449Z,22.57
2018-06-15T04:09:22.632Z,22.63
2018-06-15T04:09:53.847Z,22.73
2018-06-15T04:10:25.030Z,22.92
2018-06-15T04:10:56.205Z,23.14
2018-06-15T04:11:27.384Z,23.33
2018-06-15T04:11:58.575Z,23.48
2018-06-15T04:12:29.786Z,23.54
2018-06-15T04:13:01.025Z,23.46
2018-06-15T04:13:32.285Z,23.23
2018-06-15T04:14:03.472Z,23.08
2018-06-15T04:14:34.705Z,22.92
2018-06-15T04:15:05.960Z,22.76
2018-06-15T04:15:37.144Z,22.66
2018-06-15T04:16:08.316Z,22.55
2018-06-15T04:16:39.551Z,22.51
2018-06-15T04:17:10.782Z,22.45
2018-06-15T04:17:42.014Z,22.41
2018-06-15T04:18:13.188Z,22.36
2018-06-15T04:18:44.351Z,22.33
2018-06-15T04:19:15.537Z,22.28
2018-06-15T04:19:46.798Z,22.26
2018-06-15T04:20:18.078Z,20.54
2018-06-15T04:20:49.259Z,22.11
2018-06-15T04:21:20.441Z,22.01
2018-06-15T04:21:51.678Z,21.92
2018-06-15T04:22:22.917Z,21.82
2018-06-15T04:22:54.102Z,21.78
2018-06-15T04:23:25.333Z,21.80
2018-06-15T04:23:56.513Z,21.90
2018-06-15T04:24:27.696Z,22.07
2018-06-15T04:24:58.886Z,22.34
2018-06-15T04:25:30.117Z,22.60
2018-06-15T04:26:01.354Z,22.87
2018-06-15T04:26:32.602Z,23.11
2018-06-15T04:27:03.846Z,23.30
2018-06-15T04:27:35.110Z,23.45
2018-06-15T04:28:06.337Z,23.54
2018-06-15T04:28:37.614Z,23.64
2018-06-15T04:29:08.791Z,23.58
2018-06-15T04:29:39.957Z,23.49
2018-06-15T04:30:11.185Z,23.30
2018-06-15T04:30:42.368Z,23.14
2018-06-15T04:31:13.582Z,22.96
2018-06-15T04:31:44.756Z,22.87
2018-06-15T04:32:15.928Z,22.77
2018-06-15T04:32:47.236Z,22.69
2018-06-15T04:33:18.418Z,22.60
2018-06-15T04:33:49.597Z,22.57
2018-06-15T04:34:20.825Z,22.52
2018-06-15T04:34:52.008Z,22.44
2018-06-15T04:35:23.333Z,22.39
2018-06-15T04:35:54.512Z,22.31
2018-06-15T04:36:25.733Z,22.16
2018-06-15T04:36:57.019Z,22.09
2018-06-15T04:37:28.236Z,21.96
2018-06-15T04:37:59.425Z,21.87
2018-06-15T04:38:30.654Z,21.79
2018-06-15T04:39:01.846Z,21.60
2018-06-15T04:39:33.017Z,21.46
2018-06-15T04:40:04.242Z,21.32
2018-06-15T04:40:35.433Z,21.22
2018-06-15T04:41:06.603Z,21.20
2018-06-15T04:41:37.788Z,21.16
2018-06-15T04:42:09.009Z,21.12
2018-06-15T04:42:40.179Z,21.09
2018-06-15T04:43:11.367Z,20.96
2018-06-15T04:43:42.549Z,20.86
2018-06-15T04:44:13.728Z,20.77
2018-06-15T04:44:44.922Z,20.68
2018-06-15T04:45:16.102Z,20.62
2018-06-15T04:45:47.339Z,20.57
2018-06-15T04:46:18.641Z,20.54
2018-06-15T04:46:49.826Z,20.52
2018-06-15T04:47:21.003Z,20.49
2018-06-15T04:47:52.234Z,20.48
2018-06-15T04:48:23.479Z,20.48
2018-06-15T04:48:54.712Z,20.49
2018-06-15T04:49:25.906Z,20.51
2018-06-15T04:49:57.132Z,20.52
2018-06-15T04:50:28.378Z,20.47
2018-06-15T04:50:59.560Z,20.45
2018-06-15T04:51:30.772Z,20.43
2018-06-15T04:52:01.946Z,20.42
2018-06-15T04:52:33.173Z,20.44
2018-06-15T04:53:04.364Z,20.47
2018-06-15T04:53:35.553Z,20.51
2018-06-15T04:54:06.776Z,20.53
2018-06-15T04:54:37.971Z,20.57
2018-06-15T04:55:09.156Z,20.69
2018-06-15T04:55:40.337Z,20.88
2018-06-15T04:56:11.546Z,21.16
2018-06-15T04:56:42.772Z,21.48
2018-06-15T04:57:14.017Z,21.88
2018-06-15T04:57:45.255Z,22.22
2018-06-15T04:58:16.482Z,22.52
2018-06-15T04:58:47.678Z,22.72
2018-06-15T04:59:18.873Z,22.91
2018-06-15T04:59:50.045Z,22.94
2018-06-15T05:00:21.264Z,22.83
2018-06-15T05:00:52.489Z,22.68
2018-06-15T05:01:23.730Z,22.56
2018-06-15T05:01:54.965Z,22.53
2018-06-15T05:02:26.140Z,22.45
2018-06-15T05:02:57.316Z,22.50
2018-06-15T05:03:28.599Z,22.61
2018-06-15T05:03:59.784Z,22.74
2018-06-15T05:04:30.964Z,23.03
2018-06-15T05:05:02.137Z,23.36
2018-06-15T05:05:33.356Z,23.72
2018-06-15T05:06:04.593Z,24.14
2018-06-15T05:06:35.785Z,24.44
2018-06-15T05:07:07.005Z,24.71
2018-06-15T05:07:38.176Z,24.98
2018-06-15T05:08:09.405Z,25.28
2018-06-15T05:08:40.700Z,25.45
2018-06-15T05:09:11.940Z,25.74
2018-06-15T05:09:43.092Z,25.94
2018-06-15T05:10:14.318Z,26.18
2018-06-15T05:10:45.550Z,26.37
2018-06-15T05:11:16.732Z,26.37
2018-06-15T05:11:47.915Z,26.45
2018-06-15T05:12:19.089Z,26.64
2018-06-15T05:12:50.256Z,26.83
2018-06-15T05:13:21.631Z,26.93
2018-06-15T05:13:52.835Z,26.99
2018-06-15T05:14:24.067Z,27.03
2018-06-15T05:14:55.252Z,27.23
2018-06-15T05:15:26.440Z,27.27
2018-06-15T05:15:57.749Z,27.12
2018-06-15T05:16:28.978Z,27.06
2018-06-15T05:17:00.186Z,26.97
2018-06-15T05:17:31.419Z,26.86
2018-06-15T05:18:02.615Z,26.85
2018-06-15T05:18:33.880Z,26.78
2018-06-15T05:19:05.101Z,26.74
2018-06-15T05:19:36.279Z,26.79
2018-06-15T05:20:07.460Z,26.87
2018-06-15T05:20:38.629Z,27.02
2018-06-15T05:21:09.814Z,27.23
2018-06-15T05:21:41.036Z,27.36
2018-06-15T05:22:12.251Z,27.49
2018-06-15T05:22:43.438Z,27.65
2018-06-15T05:23:14.613Z,27.84
2018-06-15T05:23:45.814Z,27.98
2018-06-15T05:24:17.032Z,27.90
2018-06-15T05:24:48.208Z,27.71
2018-06-15T05:25:19.384Z,27.72
2018-06-15T05:25:50.736Z,27.68
2018-06-15T05:26:21.909Z,27.72
2018-06-15T05:26:53.093Z,27.76
2018-06-15T05:27:24.321Z,27.73
2018-06-15T05:27:55.507Z,27.82
2018-06-15T05:28:26.741Z,27.90
2018-06-15T05:28:57.992Z,27.99
2018-06-15T05:29:29.233Z,27.97
2018-06-15T05:30:00.482Z,28.04
2018-06-15T05:30:31.719Z,27.98
2018-06-15T05:31:02.953Z,28.10
2018-06-15T05:31:34.240Z,28.08
2018-06-15T05:32:05.425Z,28.26
2018-06-15T05:32:36.601Z,28.30
2018-06-15T05:33:07.845Z,28.21
2018-06-15T05:33:39.084Z,28.12
2018-06-15T05:34:10.476Z,28.07
2018-06-15T05:34:41.657Z,28.12
2018-06-15T05:35:12.935Z,28.08
2018-06-15T05:35:44.110Z,28.08
2018-06-15T05:36:15.328Z,28.13
2018-06-15T05:36:46.601Z,28.19
2018-06-15T05:37:17.865Z,28.22
2018-06-15T05:37:49.146Z,28.31
2018-06-15T05:38:20.336Z,28.28
2018-06-15T05:38:51.566Z,28.11
2018-06-15T05:39:22.775Z,27.91
2018-06-15T05:39:53.953Z,27.87
2018-06-15T05:40:25.228Z,27.74
2018-06-15T05:40:56.412Z,27.55
2018-06-15T05:41:27.617Z,27.55
2018-06-15T05:41:58.825Z,27.46
2018-06-15T05:42:30.042Z,27.46
2018-06-15T05:43:01.216Z,27.53
2018-06-15T05:43:32.391Z,27.62
2018-06-15T05:44:03.597Z,27.55
2018-06-15T05:44:34.795Z,27.53
2018-06-15T05:45:05.976Z,27.43
2018-06-15T05:45:37.209Z,27.41
2018-06-15T05:46:08.401Z,27.34
2018-06-15T05:46:39.580Z,27.40
2018-06-15T05:47:10.773Z,27.47
2018-06-15T05:47:41.989Z,27.66
2018-06-15T05:48:13.173Z,27.76
2018-06-15T05:48:44.348Z,27.79
2018-06-15T05:49:15.528Z,27.73
2018-06-15T05:49:48.426Z,27.81
2018-06-15T05:50:19.674Z,27.93
2018-06-15T05:50:50.925Z,27.86
2018-06-15T05:51:22.120Z,27.74
2018-06-15T05:51:53.357Z,27.70
2018-06-15T05:52:24.696Z,27.66
2018-06-15T05:52:55.894Z,27.60
2018-06-15T05:53:27.079Z,27.58
2018-06-15T05:53:58.265Z,27.39
2018-06-15T05:54:29.493Z,27.23
2018-06-15T05:55:00.710Z,27.12
2018-06-15T05:55:31.933Z,27.06
2018-06-15T05:56:03.218Z,27.05
2018-06-15T05:56:34.410Z,26.99
2018-06-15T05:57:05.591Z,26.99
2018-06-15T05:57:36.777Z,27.03
2018-06-15T05:58:08.013Z,27.10
2018-06-15T05:58:39.204Z,27.07
2018-06-15T05:59:10.400Z,26.90
2018-06-15T05:59:41.580Z,26.82
2018-06-15T06:00:12.789Z,26.74
2018-06-15T06:00:43.989Z,26.71
2018-06-15T06:01:15.198Z,26.75
2018-06-15T06:01:46.375Z,26.79
2018-06-15T06:02:17.594Z,26.87
2018-06-15T06:02:48.775Z,26.80
2018-06-15T06:03:19.997Z,26.73
2018-06-15T06:03:51.237Z,26.71
2018-06-15T06:04:22.414Z,26.63
2018-06-15T06:04:53.682Z,25.05
2018-06-15T06:05:24.881Z,26.63
2018-06-15T06:05:56.088Z,26.66
2018-06-15T06:06:27.284Z,26.74
2018-06-15T06:06:58.517Z,26.68
2018-06-15T06:07:29.756Z,26.70
2018-06-15T06:08:00.957Z,26.60
2018-06-15T06:08:32.190Z,26.61
2018-06-15T06:09:03.433Z,26.69
2018-06-15T06:09:34.709Z,26.57
2018-06-15T06:10:05.912Z,26.53
2018-06-15T06:10:37.093Z,26.45
2018-06-15T06:11:08.333Z,26.32
2018-06-15T06:11:39.538Z,26.20
2018-06-15T06:12:10.778Z,26.19
2018-06-15T06:12:41.973Z,26.25
2018-06-15T06:13:13.204Z,26.32
2018-06-15T06:13:44.400Z,26.36
2018-06-15T06:14:15.579Z,26.35
2018-06-15T06:14:46.798Z,26.35
2018-06-15T06:15:17.976Z,26.40
2018-06-15T06:15:49.157Z,26.49
2018-06-15T06:16:20.374Z,26.48
2018-06-15T06:16:51.608Z,26.54
2018-06-15T06:17:22.789Z,26.44
2018-06-15T06:17:53.990Z,26.42
2018-06-15T06:18:25.237Z,26.25
2018-06-15T06:18:56.435Z,26.25
2018-06-15T06:19:27.632Z,26.25
2018-06-15T06:19:58.840Z,26.24
2018-06-15T06:20:30.043Z,26.18
2018-06-15T06:21:01.276Z,26.19
2018-06-15T06:21:32.557Z,26.16
2018-06-15T06:22:03.750Z,26.06
2018-06-15T06:22:34.937Z,25.98
2018-06-15T06:23:06.128Z,25.97
2018-06-15T06:23:37.358Z,26.08
2018-06-15T06:24:08.561Z,26.11
2018-06-15T06:24:39.798Z,26.09
2018-06-15T06:25:10.992Z,26.15
2018-06-15T06:25:43.302Z,26.19
2018-06-15T06:26:14.526Z,26.23
2018-06-15T06:26:45.767Z,26.31
2018-06-15T06:27:16.957Z,26.41
2018-06-15T06:27:48.130Z,26.50
2018-06-15T06:28:19.383Z,26.53
2018-06-15T06:28:50.569Z,26.41
2018-06-15T06:29:21.752Z,26.38
2018-06-15T06:29:52.975Z,26.43
2018-06-15T06:30:24.239Z,26.46
2018-06-15T06:30:55.429Z,26.52
2018-06-15T06:31:26.670Z,26.58
2018-06-15T06:31:57.914Z,26.79
2018-06-15T06:32:29.180Z,26.89
2018-06-15T06:33:00.375Z,27.01
2018-06-15T06:33:31.601Z,27.07
2018-06-15T06:34:02.788Z,27.17
2018-06-15T06:34:34.046Z,27.21
2018-06-15T06:35:05.233Z,27.25
2018-06-15T06:35:36.463Z,27.37
2018-06-15T06:36:07.658Z,27.40
2018-06-15T06:36:38.902Z,27.33
2018-06-15T06:37:10.182Z,27.30
2018-06-15T06:37:41.410Z,27.30
2018-06-15T06:38:12.596Z,27.35
2018-06-15T06:38:43.834Z,27.39
2018-06-15T06:39:15.101Z,27.47
2018-06-15T06:39:46.350Z,27.44
2018-06-15T06:40:17.546Z,27.41
2018-06-15T06:40:48.772Z,27.35
2018-06-15T06:41:20.009Z,27.15
2018-06-15T06:41:51.249Z,27.20